createdAt,value
2023-02-27T00:00:01.790Z,71.23
2023-02-27T00:02:41.752Z,71.28
2023-02-27T00:05:19.555Z,71.26
2023-02-27T00:07:56.169Z,71.35
2023-02-27T00:10:32.361Z,71.36
2023-02-27T00:13:08.809Z,71.39
2023-02-27T00:15:48.433Z,71.44
2023-02-27T00:18:24.897Z,71.44
2023-02-27T00:21:01.214Z,71.43
2023-02-27T00:23:37.487Z,71.44
2023-02-27T00:26:13.921Z,71.35
2023-02-27T00:28:50.517Z,71.48
2023-02-27T00:31:27.378Z,71.48
2023-02-27T00:34:04.352Z,71.54
2023-02-27T00:36:40.774Z,71.57
2023-02-27T00:39:17.058Z,71.21
2023-02-27T00:41:53.664Z,71.06
2023-02-27T00:44:30.127Z,70.62
2023-02-27T00:47:06.635Z,70.94
2023-02-27T00:49:42.940Z,70.53
2023-02-27T00:52:19.520Z,70.28
2023-02-27T00:54:55.896Z,70.32
2023-02-27T00:57:32.381Z,70.38
2023-02-27T01:00:12.591Z,70.43
2023-02-27T01:02:48.880Z,70.34
2023-02-27T01:05:25.491Z,70.13
2023-02-27T01:08:01.818Z,69.97
2023-02-27T01:10:38.803Z,70.15
2023-02-27T01:13:16.244Z,69.93
2023-02-27T01:15:53.073Z,69.65
2023-02-27T01:18:29.353Z,69.90
2023-02-27T01:21:06.827Z,69.84
2023-02-27T01:23:43.742Z,69.75
2023-02-27T01:26:20.048Z,69.39
2023-02-27T01:28:56.357Z,69.38
2023-02-27T01:31:32.825Z,69.37
2023-02-27T01:34:09.275Z,69.24
2023-02-27T01:36:45.740Z,69.23
2023-02-27T01:39:26.306Z,69.44
2023-02-27T01:42:02.774Z,69.29
2023-02-27T01:45:27.699Z,69.55
2023-02-27T01:48:20.580Z,69.23
2023-02-27T01:51:06.400Z,69.39
2023-02-27T01:53:47.007Z,69.05
2023-02-27T01:56:28.670Z,69.06
2023-02-27T01:59:11.371Z,69.19
2023-02-27T02:01:47.742Z,69.33
2023-02-27T02:04:32.519Z,69.51
2023-02-27T02:07:14.484Z,69.32
2023-02-27T02:09:54.391Z,69.25
2023-02-27T02:12:37.198Z,68.97
2023-02-27T02:15:15.990Z,69.23
2023-02-27T02:18:10.007Z,69.19
2023-02-27T02:21:51.719Z,69.40
2023-02-27T02:25:31.892Z,69.83
2023-02-27T02:28:48.945Z,69.64
2023-02-27T02:32:24.464Z,69.33
2023-02-27T02:36:00.533Z,68.93
2023-02-27T02:39:10.234Z,69.02
2023-02-27T02:42:05.542Z,68.97
2023-02-27T02:44:58.610Z,68.98
2023-02-27T02:47:53.218Z,68.78
2023-02-27T02:50:42.352Z,68.68
2023-02-27T02:53:37.212Z,68.46
2023-02-27T02:56:26.231Z,67.98
2023-02-27T02:59:12.097Z,67.59
2023-02-27T03:01:55.201Z,66.81
2023-02-27T03:04:40.700Z,66.79
2023-02-27T03:07:25.451Z,66.35
2023-02-27T03:10:13.976Z,66.28
2023-02-27T03:13:06.400Z,66.05
2023-02-27T03:15:53.393Z,65.94
2023-02-27T03:18:37.041Z,66.33
2023-02-27T03:21:22.867Z,66.43
2023-02-27T03:24:07.480Z,66.22
2023-02-27T03:26:48.610Z,66.10
2023-02-27T03:29:38.795Z,65.81
2023-02-27T03:32:26.462Z,65.10
2023-02-27T03:35:04.740Z,64.25
2023-02-27T03:37:59.454Z,64.63
2023-02-27T03:40:42.148Z,64.91
2023-02-27T03:43:32.202Z,64.87
2023-02-27T03:46:15.664Z,64.37
2023-02-27T03:48:52.238Z,64.40
2023-02-27T03:51:31.647Z,64.29
2023-02-27T03:54:15.734Z,64.08
2023-02-27T03:57:01.285Z,63.89
2023-02-27T03:59:39.720Z,63.96
2023-02-27T04:02:17.005Z,63.76
2023-02-27T04:04:55.109Z,63.22
2023-02-27T04:08:13.972Z,63.34
2023-02-27T04:11:35.925Z,62.99
2023-02-27T04:14:48.633Z,62.61
2023-02-27T04:17:34.153Z,61.95
2023-02-27T04:20:46.064Z,62.18
2023-02-27T04:23:32.996Z,61.92
2023-02-27T04:26:29.103Z,61.86
2023-02-27T04:29:17.884Z,60.93
2023-02-27T04:32:03.653Z,60.86
2023-02-27T04:34:48.860Z,61.15
2023-02-27T04:37:35.116Z,61.35
2023-02-27T04:40:18.586Z,61.15
2023-02-27T04:43:01.266Z,61.56
2023-02-27T04:45:41.587Z,61.71
2023-02-27T04:48:26.480Z,61.98
2023-02-27T04:51:12.361Z,61.96
2023-02-27T04:53:56.035Z,61.44
2023-02-27T04:56:40.562Z,61.65
2023-02-27T04:59:26.005Z,61.67
2023-02-27T05:02:08.430Z,61.82
2023-02-27T05:04:49.746Z,61.45
2023-02-27T05:07:38.887Z,61.42
2023-02-27T05:10:28.590Z,61.60
2023-02-27T05:13:13.151Z,61.84
2023-02-27T05:15:56.690Z,62.18
2023-02-27T05:18:34.018Z,62.00
2023-02-27T05:21:28.915Z,62.34
2023-02-27T05:24:25.657Z,62.04
2023-02-27T05:27:26.075Z,61.45
2023-02-27T05:30:07.316Z,61.18
2023-02-27T05:32:54.259Z,61.56
2023-02-27T05:35:44.613Z,61.61
2023-02-27T05:38:28.715Z,61.97
2023-02-27T05:41:15.592Z,62.28
2023-02-27T05:43:59.935Z,62.38
2023-02-27T05:46:42.545Z,62.57
2023-02-27T05:49:28.004Z,62.80
2023-02-27T05:52:10.695Z,63.02
2023-02-27T05:54:56.036Z,63.23
2023-02-27T05:57:40.332Z,63.39
2023-02-27T06:00:27.251Z,63.75
2023-02-27T06:03:04.650Z,63.57
2023-02-27T06:05:44.216Z,63.87
2023-02-27T06:08:21.061Z,64.22
2023-02-27T06:10:58.097Z,64.25
2023-02-27T06:13:34.540Z,64.49
2023-02-27T06:16:15.907Z,64.63
2023-02-27T06:18:52.162Z,64.83
2023-02-27T06:21:28.491Z,65.22
2023-02-27T06:24:05.237Z,65.54
2023-02-27T06:26:41.751Z,66.03
2023-02-27T06:29:18.018Z,66.21
2023-02-27T06:31:54.295Z,66.18
2023-02-27T06:34:31.011Z,66.53
2023-02-27T06:37:08.342Z,66.74
2023-02-27T06:39:44.820Z,66.97
2023-02-27T06:42:21.734Z,67.40
2023-02-27T06:44:58.169Z,67.85
2023-02-27T06:47:35.191Z,68.14
2023-02-27T06:50:16.208Z,68.35
2023-02-27T06:52:52.660Z,68.71
2023-02-27T06:55:29.280Z,68.96
2023-02-27T06:58:06.084Z,69.11
2023-02-27T07:00:43.266Z,69.48
2023-02-27T07:03:21.198Z,69.70
2023-02-27T07:05:57.772Z,69.75
2023-02-27T07:08:36.116Z,69.98
2023-02-27T07:11:13.693Z,69.75
2023-02-27T07:13:50.206Z,69.95
2023-02-27T07:16:26.922Z,69.77
2023-02-27T07:19:03.385Z,69.58
2023-02-27T07:21:39.977Z,69.50
2023-02-27T07:24:16.588Z,69.41
2023-02-27T07:26:54.443Z,69.27
2023-02-27T07:29:30.764Z,68.76
2023-02-27T07:32:08.150Z,68.56
2023-02-27T07:34:44.477Z,68.16
2023-02-27T07:37:20.817Z,67.67
2023-02-27T07:39:57.294Z,67.28
2023-02-27T07:42:34.034Z,67.39
2023-02-27T07:45:13.280Z,67.15
2023-02-27T07:47:49.931Z,66.65
2023-02-27T07:50:26.293Z,66.63
2023-02-27T07:53:02.636Z,66.31
2023-02-27T07:55:38.935Z,65.80
2023-02-27T07:58:15.466Z,65.36
2023-02-27T08:00:52.108Z,65.04
2023-02-27T08:03:28.422Z,64.37
2023-02-27T08:06:04.992Z,63.78
2023-02-27T08:08:42.216Z,62.87
2023-02-27T08:11:19.129Z,61.94
2023-02-27T08:14:00.497Z,62.36
2023-02-27T08:16:37.979Z,61.60
2023-02-27T08:19:16.979Z,61.38
2023-02-27T08:21:53.232Z,60.96
2023-02-27T08:24:30.592Z,61.31
2023-02-27T08:27:07.050Z,61.29
2023-02-27T08:29:45.510Z,59.60
2023-02-27T08:32:21.912Z,59.82
2023-02-27T08:34:58.289Z,59.49
2023-02-27T08:37:34.932Z,59.51
2023-02-27T08:40:14.631Z,59.06
2023-02-27T08:42:52.312Z,59.06
2023-02-27T08:45:29.443Z,58.64
2023-02-27T08:48:06.113Z,58.13
2023-02-27T08:50:43.269Z,57.41
2023-02-27T08:53:19.710Z,56.98
2023-02-27T08:55:56.648Z,57.54
2023-02-27T08:58:34.723Z,57.42
2023-02-27T09:01:11.673Z,57.40
2023-02-27T09:03:48.134Z,56.34
2023-02-27T09:06:26.231Z,56.15
2023-02-27T09:09:03.804Z,56.37
2023-02-27T09:11:40.063Z,55.14
2023-02-27T09:14:16.543Z,54.66
2023-02-27T09:16:53.023Z,54.25
2023-02-27T09:19:29.847Z,54.39
2023-02-27T09:22:06.172Z,54.22
2023-02-27T09:24:42.633Z,53.70
2023-02-27T09:27:19.623Z,53.56
2023-02-27T09:29:56.520Z,53.98
2023-02-27T09:32:33.369Z,53.68
2023-02-27T09:35:12.079Z,53.69
2023-02-27T09:37:49.855Z,54.21
2023-02-27T09:40:32.974Z,53.96
2023-02-27T09:43:19.642Z,53.71
2023-02-27T09:45:58.876Z,53.52
2023-02-27T09:48:45.714Z,54.22
2023-02-27T09:51:24.215Z,55.51
2023-02-27T09:54:06.064Z,55.53
2023-02-27T09:56:49.693Z,54.52
2023-02-27T09:59:40.136Z,54.67
2023-02-27T10:02:47.388Z,54.75
2023-02-27T10:05:38.695Z,55.33
2023-02-27T10:08:27.089Z,55.33
2023-02-27T10:11:13.188Z,55.78
2023-02-27T10:14:11.071Z,55.99
2023-02-27T10:16:50.898Z,56.48
2023-02-27T10:19:35.469Z,56.64
2023-02-27T10:22:22.817Z,58.00
2023-02-27T10:25:15.621Z,59.28
2023-02-27T10:28:14.883Z,60.37
2023-02-27T10:30:58.740Z,61.34
2023-02-27T10:33:40.028Z,61.50
2023-02-27T10:36:32.459Z,61.46
2023-02-27T10:39:16.943Z,60.71
2023-02-27T10:41:54.483Z,61.04
2023-02-27T10:44:31.808Z,61.23
2023-02-27T10:47:08.265Z,61.71
2023-02-27T10:49:46.698Z,62.80
2023-02-27T10:52:23.526Z,63.46
2023-02-27T10:55:20.871Z,64.30
2023-02-27T10:57:58.989Z,64.80
2023-02-27T11:00:55.933Z,64.77
2023-02-27T11:03:39.938Z,65.22
2023-02-27T11:06:27.533Z,66.19
2023-02-27T11:09:27.375Z,67.03
2023-02-27T11:12:25.186Z,67.64
2023-02-27T11:15:04.196Z,68.29
2023-02-27T11:17:40.555Z,68.38
2023-02-27T11:20:43.569Z,68.69
2023-02-27T11:23:25.256Z,69.05
2023-02-27T11:26:21.817Z,68.95
2023-02-27T11:29:18.530Z,69.33
2023-02-27T11:32:01.135Z,69.66
2023-02-27T11:34:47.609Z,69.55
2023-02-27T11:37:34.906Z,69.81
2023-02-27T11:40:24.034Z,70.21
2023-02-27T11:43:07.229Z,69.67
2023-02-27T11:46:19.452Z,69.43
2023-02-27T11:48:54.100Z,69.63
2023-02-27T11:51:58.120Z,69.47
2023-02-27T11:54:42.604Z,69.03
2023-02-27T11:57:30.221Z,68.55
2023-02-27T12:00:20.180Z,68.93
2023-02-27T12:03:06.660Z,69.55
2023-02-27T12:05:51.564Z,69.46
2023-02-27T12:08:42.850Z,69.76
2023-02-27T12:11:30.548Z,69.34
2023-02-27T12:14:18.014Z,69.39
2023-02-27T12:17:00.446Z,69.21
2023-02-27T12:19:46.727Z,69.34
2023-02-27T12:22:30.344Z,69.20
2023-02-27T12:25:16.932Z,68.93
2023-02-27T12:28:04.095Z,68.94
2023-02-27T12:30:48.976Z,68.75
2023-02-27T12:33:42.381Z,68.60
2023-02-27T12:36:19.448Z,68.79
2023-02-27T12:38:56.613Z,68.73
2023-02-27T12:42:16.247Z,68.93
2023-02-27T12:45:40.107Z,68.69
2023-02-27T12:48:45.104Z,68.52
2023-02-27T12:51:41.091Z,68.26
2023-02-27T12:54:41.099Z,68.21
2023-02-27T12:57:38.060Z,68.64
2023-02-27T13:00:23.005Z,68.71
2023-02-27T13:03:18.029Z,68.80
2023-02-27T13:06:10.842Z,68.73
2023-02-27T13:09:25.878Z,68.22
2023-02-27T13:12:19.137Z,68.22
2023-02-27T13:15:04.476Z,68.54
2023-02-27T13:17:53.334Z,68.07
2023-02-27T13:20:45.761Z,68.02
2023-02-27T13:23:35.007Z,67.38
2023-02-27T13:26:23.355Z,66.85
2023-02-27T13:29:01.402Z,66.63
2023-02-27T13:31:56.053Z,66.67
2023-02-27T13:34:41.790Z,65.49
2023-02-27T13:37:18.211Z,65.61
2023-02-27T13:40:02.186Z,65.05
2023-02-27T13:43:27.320Z,64.45
2023-02-27T13:46:22.315Z,64.26
2023-02-27T13:49:29.486Z,63.83
2023-02-27T13:52:07.750Z,63.91
2023-02-27T13:54:47.448Z,63.79
2023-02-27T13:57:32.614Z,63.14
2023-02-27T14:00:24.146Z,62.77
2023-02-27T14:03:07.687Z,62.45
2023-02-27T14:05:49.961Z,62.77
2023-02-27T14:08:30.607Z,62.62
2023-02-27T14:11:24.786Z,62.18
2023-02-27T14:14:11.058Z,61.68
2023-02-27T14:17:05.529Z,62.11
2023-02-27T14:20:00.520Z,62.23
2023-02-27T14:23:25.623Z,61.53
2023-02-27T14:26:15.576Z,61.78
2023-02-27T14:28:58.173Z,61.48
2023-02-27T14:31:40.590Z,61.25
2023-02-27T14:34:23.411Z,61.50
2023-02-27T14:37:03.509Z,61.94
2023-02-27T14:39:41.551Z,62.11
2023-02-27T14:42:58.984Z,62.98
2023-02-27T14:45:36.049Z,63.46
2023-02-27T14:48:26.809Z,63.64
2023-02-27T14:51:06.790Z,63.65
2023-02-27T14:53:43.357Z,63.87
2023-02-27T14:56:24.759Z,64.05
2023-02-27T14:59:04.609Z,64.11
2023-02-27T15:01:42.992Z,64.64
2023-02-27T15:04:27.523Z,64.77
2023-02-27T15:07:05.306Z,65.20
2023-02-27T15:09:49.214Z,65.92
2023-02-27T15:12:28.164Z,65.99
2023-02-27T15:15:11.320Z,66.15
2023-02-27T15:17:48.950Z,66.51
2023-02-27T15:20:36.132Z,66.41
2023-02-27T15:26:16.803Z,66.26
2023-02-27T15:28:54.044Z,65.97
2023-02-27T15:31:32.428Z,66.45
2023-02-27T15:34:16.060Z,66.75
2023-02-27T15:36:58.525Z,67.01
2023-02-27T15:39:37.904Z,66.71
2023-02-27T15:42:17.043Z,66.87
2023-02-27T15:44:54.497Z,67.09
2023-02-27T15:47:33.974Z,67.45
2023-02-27T15:50:29.731Z,67.95
2023-02-27T15:53:14.889Z,68.15
2023-02-27T15:55:56.460Z,68.45
2023-02-27T15:58:38.730Z,68.54
2023-02-27T16:01:22.006Z,68.46
2023-02-27T16:04:02.291Z,68.35
2023-02-27T16:06:42.801Z,68.70
2023-02-27T16:09:30.451Z,69.13
2023-02-27T16:12:38.176Z,69.22
2023-02-27T16:15:36.568Z,69.25
2023-02-27T16:18:35.997Z,69.05
2023-02-27T16:21:20.140Z,68.85
2023-02-27T16:24:17.582Z,68.71
2023-02-27T16:26:57.074Z,68.67
2023-02-27T16:29:44.304Z,68.68
2023-02-27T16:32:30.382Z,68.54
2023-02-27T16:35:17.881Z,68.30
2023-02-27T16:38:01.025Z,68.21
2023-02-27T16:40:37.744Z,68.10
2023-02-27T16:43:14.094Z,68.25
2023-02-27T16:45:58.346Z,68.18
2023-02-27T16:48:34.647Z,68.03
2023-02-27T16:51:19.065Z,67.63
2023-02-27T16:53:56.908Z,67.65
2023-02-27T16:56:38.458Z,67.73
2023-02-27T16:59:34.231Z,67.58
2023-02-27T17:02:16.395Z,67.99
2023-02-27T17:04:52.348Z,67.84
2023-02-27T17:07:29.386Z,67.61
2023-02-27T17:10:06.172Z,67.58
2023-02-27T17:12:44.089Z,67.53
2023-02-27T17:15:22.087Z,67.64
2023-02-27T17:17:58.644Z,67.89
2023-02-27T17:20:35.052Z,67.76
2023-02-27T17:23:14.505Z,67.39
2023-02-27T17:25:50.920Z,67.37
2023-02-27T17:28:28.006Z,66.94
2023-02-27T17:31:08.553Z,66.91
2023-02-27T17:33:45.657Z,67.08
2023-02-27T17:36:23.578Z,67.36
2023-02-27T17:39:03.698Z,67.58
2023-02-27T17:41:40.371Z,67.92
2023-02-27T17:44:17.721Z,67.89
2023-02-27T17:46:54.053Z,67.85
2023-02-27T17:49:30.523Z,68.04
2023-02-27T17:52:08.138Z,68.25
2023-02-27T17:54:44.385Z,68.44
2023-02-27T17:57:20.924Z,68.54
2023-02-27T17:59:57.291Z,68.56
2023-02-27T18:02:33.792Z,68.65
2023-02-27T18:05:12.177Z,68.61
2023-02-27T18:07:48.861Z,68.67
2023-02-27T18:10:25.571Z,68.80
2023-02-27T18:13:04.618Z,68.65
2023-02-27T18:15:42.346Z,68.67
2023-02-27T18:18:19.292Z,68.66
2023-02-27T18:21:09.231Z,68.40
2023-02-27T18:23:46.190Z,68.46
2023-02-27T18:26:30.515Z,68.58
2023-02-27T18:29:10.912Z,68.07
2023-02-27T18:31:53.607Z,68.16
2023-02-27T18:34:30.988Z,68.30
2023-02-27T18:37:07.476Z,67.79
2023-02-27T18:39:43.893Z,67.75
2023-02-27T18:42:20.384Z,67.83
2023-02-27T18:44:56.943Z,67.97
2023-02-27T18:47:33.746Z,67.90
2023-02-27T18:50:14.270Z,68.03
2023-02-27T18:52:51.781Z,68.29
2023-02-27T18:55:28.553Z,68.52
2023-02-27T18:58:06.204Z,68.53
2023-02-27T19:00:44.063Z,68.60
2023-02-27T19:03:20.590Z,68.66
2023-02-27T19:05:58.315Z,68.69
2023-02-27T19:08:34.662Z,68.27
2023-02-27T19:11:11.325Z,68.17
2023-02-27T19:13:48.540Z,68.01
2023-02-27T19:16:25.842Z,68.04
2023-02-27T19:19:05.265Z,67.93
2023-02-27T19:21:42.054Z,67.98
2023-02-27T19:24:19.239Z,67.96
2023-02-27T19:26:56.754Z,67.98
2023-02-27T19:29:33.328Z,66.96
2023-02-27T19:32:11.270Z,66.53
2023-02-27T19:34:48.482Z,66.64
2023-02-27T19:37:25.258Z,66.46
2023-02-27T19:40:01.992Z,66.71
2023-02-27T19:42:39.053Z,66.69
2023-02-27T19:45:17.001Z,66.57
2023-02-27T19:47:54.349Z,66.72
2023-02-27T19:50:31.378Z,66.70
2023-02-27T19:53:08.251Z,66.86
2023-02-27T19:55:44.830Z,66.74
2023-02-27T19:58:22.009Z,66.71
2023-02-27T20:00:58.798Z,66.58
2023-02-27T20:03:36.492Z,66.48
2023-02-27T20:06:23.422Z,66.43
2023-02-27T20:09:01.378Z,66.54
2023-02-27T20:11:38.071Z,66.52
2023-02-27T20:14:15.650Z,66.66
2023-02-27T20:16:53.111Z,66.71
2023-02-27T20:19:29.608Z,66.90
2023-02-27T20:22:07.351Z,66.90
2023-02-27T20:24:45.999Z,67.03
2023-02-27T20:27:22.509Z,67.13
2023-02-27T20:30:00.128Z,66.78
2023-02-27T20:32:36.795Z,66.84
2023-02-27T20:35:15.705Z,66.88
2023-02-27T20:37:54.057Z,66.72
2023-02-27T20:41:16.572Z,66.75
2023-02-27T20:43:59.179Z,67.05
2023-02-27T20:46:36.380Z,67.15
2023-02-27T20:49:15.711Z,67.27
2023-02-27T20:51:52.913Z,67.37
2023-02-27T20:54:29.319Z,67.39
2023-02-27T20:57:06.084Z,67.25
2023-02-27T20:59:42.901Z,67.12
2023-02-27T21:02:19.170Z,67.14
2023-02-27T21:04:57.598Z,67.13
2023-02-27T21:07:34.478Z,66.90
2023-02-27T21:10:13.638Z,67.06
2023-02-27T21:12:49.981Z,67.01
2023-02-27T21:15:26.278Z,66.75
2023-02-27T21:18:02.648Z,66.85
2023-02-27T21:20:40.446Z,66.81
2023-02-27T21:23:17.122Z,66.88
2023-02-27T21:25:54.009Z,66.78
2023-02-27T21:28:30.379Z,66.21
2023-02-27T21:31:11.483Z,66.31
2023-02-27T21:33:48.514Z,66.05
2023-02-27T21:36:32.117Z,65.93
2023-02-27T21:39:13.473Z,66.19
2023-02-27T21:41:50.462Z,66.33
2023-02-27T21:44:29.762Z,66.33
2023-02-27T21:47:10.475Z,66.16
2023-02-27T21:49:47.022Z,65.83
2023-02-27T21:52:23.263Z,65.70
2023-02-27T21:54:59.615Z,65.84
2023-02-27T21:57:35.947Z,66.02
2023-02-27T22:00:16.613Z,66.06
2023-02-27T22:02:53.021Z,66.11
2023-02-27T22:05:29.605Z,65.94
2023-02-27T22:08:06.071Z,66.08
2023-02-27T22:10:45.958Z,66.19
2023-02-27T22:13:23.369Z,65.73
2023-02-27T22:16:04.439Z,65.86
2023-02-27T22:18:42.205Z,66.02
2023-02-27T22:21:22.789Z,66.23
2023-02-27T22:24:00.749Z,66.12
2023-02-27T22:26:38.714Z,65.95
2023-02-27T22:29:15.303Z,65.73
2023-02-27T22:31:51.872Z,65.46
2023-02-27T22:34:28.426Z,65.49
2023-02-27T22:37:04.727Z,65.61
2023-02-27T22:39:41.321Z,65.91
2023-02-27T22:42:17.620Z,65.95
2023-02-27T22:44:53.859Z,65.90
2023-02-27T22:47:30.412Z,65.82
2023-02-27T22:50:08.240Z,65.82
2023-02-27T22:52:44.630Z,65.56
2023-02-27T22:55:21.142Z,65.46
2023-02-27T22:57:58.337Z,65.66
2023-02-27T23:00:34.751Z,65.69
2023-02-27T23:03:11.240Z,65.95
2023-02-27T23:05:52.402Z,65.99
2023-02-27T23:08:29.062Z,65.91
2023-02-27T23:11:06.866Z,65.82
2023-02-27T23:13:43.861Z,65.87
2023-02-27T23:16:21.396Z,66.12
2023-02-27T23:19:00.900Z,65.81
2023-02-27T23:21:40.319Z,65.94
2023-02-27T23:24:19.867Z,66.05
2023-02-27T23:26:57.488Z,66.11
2023-02-27T23:29:34.312Z,66.07
2023-02-27T23:32:11.248Z,66.16
2023-02-27T23:34:49.834Z,66.20
2023-02-27T23:37:26.386Z,66.29
2023-02-27T23:40:02.617Z,66.31
2023-02-27T23:42:38.918Z,66.26
2023-02-27T23:45:25.858Z,66.26
2023-02-27T23:48:04.838Z,66.30
2023-02-27T23:50:45.275Z,66.33
2023-02-27T23:53:21.656Z,66.45
2023-02-27T23:55:58.553Z,66.38
2023-02-27T23:58:34.779Z,66.58
